Time;durP1;ratioP1;P1;durP2;ratioP2;P2;SDS_P1;SDS_P2;PMS_P1;PMS_P2;Temp;Humidity;BMP_temperature;BMP_pressure;BME280_temperature;BME280_humidity;BME280_pressure;Samples;Min_cycle;Max_cycle;Signal;HPM_P1;HPM_P2
2021/12/03 00:00:54;;;;;;;20.52;11.75;;;;;;;;;;4828489;29;20027;-78
2021/12/03 00:03:20;;;;;;;19.55;13.23;;;;;;;;;;4811930;29;20030;-78
2021/12/03 00:05:45;;;;;;;16.80;11.98;;;;;;;;;;4828067;29;20496;-78
2021/12/03 00:08:11;;;;;;;21.10;12.93;;;;;;;;;;4828457;29;20367;-79
2021/12/03 16:08:55;;;;;;;1.40;0.90;;;;;;;;;;4879745;29;20045;-77
2021/12/03 16:11:36;;;;;;;1.17;1.08;;;;;;;;;;4879765;29;20080;-80
2021/12/03 16:25:25;;;;;;;0.93;0.82;;;;;;;;;;4879274;29;20025;-78
2021/12/03 16:46:37;;;;;;;2.15;1.13;;;;;;;;;;4845543;29;20534;-79
2021/12/03 16:51:54;;;;;;;1.45;1.00;;;;;;;;;;4845741;29;20036;-78
2021/12/03 16:57:28;;;;;;;0.60;0.60;;;;;;;;;;4771183;30;20413;-77
2021/12/03 16:59:54;;;;;;;1.20;0.82;;;;;;;;;;4833181;29;20071;-80
2021/12/03 17:02:26;;;;;;;1.42;1.30;;;;;;;;;;4845362;29;20062;-79
2021/12/03 17:07:54;;;;;;;3.22;2.20;;;;;;;;;;4845248;29;20389;-80
2021/12/03 17:47:42;;;;;;;1.65;1.10;;;;;;;;;;4845070;29;20098;-77
2021/12/03 17:53:00;;;;;;;4.70;2.53;;;;;;;;;;4844750;29;20034;-78
2021/12/03 17:58:02;;;;;;;1.95;1.85;;;;;;;;;;4844323;29;20389;-79
2021/12/03 18:03:09;;;;;;;4.55;1.95;;;;;;;;;;4843859;29;20422;-78
2021/12/03 18:08:25;;;;;;;2.47;1.85;;;;;;;;;;4844309;29;20026;-78
2021/12/03 18:11:03;;;;;;;4.20;2.80;;;;;;;;;;4844190;29;20095;-76
2021/12/03 18:14:16;;;;;;;6.47;4.50;;;;;;;;;;4844016;29;20034;-77
2021/12/03 18:43:20;;;;;;;2.50;1.70;;;;;;;;;;4843986;29;20070;-77
2021/12/03 18:46:45;;;;;;;3.83;2.90;;;;;;;;;;4843556;29;20053;-78
2021/12/03 18:57:06;;;;;;;10.50;5.93;;;;;;;;;;4843088;29;20389;-79
2021/12/03 18:59:07;;;;;;;8.27;4.80;;;;;;;;;;4833094;29;20049;-81
2021/12/03 19:01:34;;;;;;;8.57;5.13;;;;;;;;;;4836907;29;20033;-78
2021/12/03 19:06:30;;;;;;;5.63;3.63;;;;;;;;;;4864656;29;20388;-78
2021/12/03 19:13:49;;;;;;;5.50;3.65;;;;;;;;;;4867036;29;20064;-78
2021/12/03 19:16:18;;;;;;;6.00;3.08;;;;;;;;;;4862721;29;20022;-77
2021/12/03 19:18:45;;;;;;;8.20;4.13;;;;;;;;;;4844862;29;20104;-78
2021/12/03 19:21:19;;;;;;;9.45;6.53;;;;;;;;;;4861662;29;20033;-78
2021/12/03 19:23:44;;;;;;;283.33;105.75;;;;;;;;;;4861220;29;20485;-77
2021/12/03 19:26:10;;;;;;;103.05;42.92;;;;;;;;;;4861376;29;20029;-78
2021/12/03 19:28:36;;;;;;;209.77;94.40;;;;;;;;;;4861513;29;20077;-78
2021/12/03 19:31:02;;;;;;;66.43;29.20;;;;;;;;;;4861168;29;20042;-78
2021/12/03 19:33:28;;;;;;;20.60;10.55;;;;;;;;;;4861204;29;20188;-80
2021/12/03 19:35:54;;;;;;;4.90;3.10;;;;;;;;;;4860892;29;20029;-78
2021/12/03 19:38:20;;;;;;;2.15;1.65;;;;;;;;;;4860902;29;20532;-76
2021/12/03 19:40:56;;;;;;;3.47;1.90;;;;;;;;;;4861178;29;20061;-76
2021/12/03 19:43:29;;;;;;;12.65;6.55;;;;;;;;;;4865091;29;20445;-79
2021/12/03 19:46:00;;;;;;;12.02;5.57;;;;;;;;;;4868523;29;20377;-76
2021/12/03 19:48:34;;;;;;;5.50;2.95;;;;;;;;;;4866636;29;20029;-75
2021/12/03 19:51:00;;;;;;;4.47;3.45;;;;;;;;;;4869002;29;20128;-76
2021/12/03 19:53:30;;;;;;;15.40;8.10;;;;;;;;;;4871326;29;20052;-76
2021/12/03 19:55:56;;;;;;;8.13;4.28;;;;;;;;;;4869148;29;20029;-76
2021/12/03 19:58:21;;;;;;;7.55;5.35;;;;;;;;;;4878981;29;20033;-76
2021/12/03 20:00:50;;;;;;;11.48;6.97;;;;;;;;;;4879447;29;20061;-77
2021/12/03 20:03:15;;;;;;;7.15;4.75;;;;;;;;;;4879356;29;20425;-76
2021/12/03 20:05:41;;;;;;;8.63;4.95;;;;;;;;;;4882491;29;20029;-78
2021/12/03 20:08:08;;;;;;;9.35;6.32;;;;;;;;;;4883260;29;20025;-76
2021/12/03 20:10:40;;;;;;;7.40;4.70;;;;;;;;;;4883315;29;20029;-77
2021/12/03 20:13:08;;;;;;;5.93;4.22;;;;;;;;;;4883366;29;20041;-78
2021/12/03 20:15:39;;;;;;;4.80;3.47;;;;;;;;;;4883155;29;20029;-77
2021/12/03 20:20:49;;;;;;;4.63;2.85;;;;;;;;;;4883155;29;20113;-77
2021/12/03 20:23:27;;;;;;;13.43;6.57;;;;;;;;;;4882959;29;20434;-76
2021/12/03 20:26:09;;;;;;;4.07;2.95;;;;;;;;;;4882888;29;20033;-77
2021/12/03 20:31:26;;;;;;;5.47;2.95;;;;;;;;;;4877720;29;20481;-76
2021/12/03 20:34:09;;;;;;;6.70;4.18;;;;;;;;;;4882799;29;20120;-76
2021/12/03 20:39:23;;;;;;;9.52;5.22;;;;;;;;;;4883112;29;20051;-76
2021/12/03 20:42:15;;;;;;;9.65;5.45;;;;;;;;;;4882842;29;20037;-76
2021/12/03 20:50:05;;;;;;;8.05;5.10;;;;;;;;;;4882894;29;20169;-76
2021/12/03 21:08:19;;;;;;;10.50;5.75;;;;;;;;;;4864333;29;20098;-79
2021/12/03 21:10:57;;;;;;;9.15;4.57;;;;;;;;;;4864254;29;20060;-78
2021/12/03 21:13:28;;;;;;;8.18;4.65;;;;;;;;;;4863896;29;20476;-78
2021/12/03 21:16:13;;;;;;;7.45;3.97;;;;;;;;;;4863682;29;20097;-78
2021/12/03 21:18:55;;;;;;;8.57;4.68;;;;;;;;;;4863968;29;20400;-77
2021/12/03 21:23:47;;;;;;;8.10;4.57;;;;;;;;;;4863725;29;20029;-76
2021/12/03 21:26:19;;;;;;;8.02;4.28;;;;;;;;;;4863680;29;20459;-77
2021/12/03 21:42:11;;;;;;;7.65;5.75;;;;;;;;;;4863409;29;20506;-78
2021/12/03 21:44:37;;;;;;;6.45;4.20;;;;;;;;;;4863536;29;20041;-78
2021/12/03 21:47:03;;;;;;;8.98;6.25;;;;;;;;;;4863240;29;20104;-76
2021/12/03 21:49:29;;;;;;;7.90;5.20;;;;;;;;;;4846586;29;20037;-77
2021/12/03 21:51:54;;;;;;;8.00;4.72;;;;;;;;;;4863428;29;20029;-78
2021/12/03 21:54:20;;;;;;;6.88;4.00;;;;;;;;;;4863092;29;20065;-76
2021/12/03 21:56:47;;;;;;;6.65;4.10;;;;;;;;;;4863010;29;20473;-78
2021/12/03 21:59:15;;;;;;;6.18;3.67;;;;;;;;;;4846490;29;20033;-77
2021/12/03 22:01:40;;;;;;;6.63;3.67;;;;;;;;;;4862870;29;20017;-75
2021/12/03 22:04:06;;;;;;;5.65;3.50;;;;;;;;;;4862582;29;20036;-77
2021/12/03 22:06:33;;;;;;;9.50;5.40;;;;;;;;;;4862610;29;20094;-76
2021/12/03 22:08:59;;;;;;;7.18;3.70;;;;;;;;;;4862650;29;20037;-76
2021/12/03 22:11:26;;;;;;;9.65;4.40;;;;;;;;;;4862802;29;20029;-77
2021/12/03 22:13:51;;;;;;;11.05;4.60;;;;;;;;;;4862959;29;20081;-76
2021/12/03 22:16:17;;;;;;;7.13;4.60;;;;;;;;;;4862610;29;20112;-76
2021/12/03 22:18:43;;;;;;;8.73;4.10;;;;;;;;;;4862471;29;20030;-77
2021/12/03 22:21:09;;;;;;;6.18;3.70;;;;;;;;;;4862577;29;20035;-76
2021/12/03 22:23:36;;;;;;;7.00;4.00;;;;;;;;;;4862424;29;20481;-78
2021/12/03 22:26:03;;;;;;;4.88;2.90;;;;;;;;;;4862661;29;20042;-76
2021/12/03 22:28:28;;;;;;;3.55;2.20;;;;;;;;;;4861889;29;20021;-76
2021/12/03 22:30:55;;;;;;;3.80;2.60;;;;;;;;;;4862579;29;20470;-77
2021/12/03 22:33:22;;;;;;;5.28;3.13;;;;;;;;;;4861983;29;20034;-76
2021/12/03 22:35:48;;;;;;;3.88;2.42;;;;;;;;;;4862235;29;20026;-76
2021/12/03 22:38:13;;;;;;;3.40;2.45;;;;;;;;;;4845512;29;20375;-76
2021/12/03 22:40:42;;;;;;;3.72;2.83;;;;;;;;;;4865177;29;20044;-76
2021/12/03 22:43:11;;;;;;;4.18;3.20;;;;;;;;;;4870578;29;20021;-75
2021/12/03 22:45:46;;;;;;;7.57;3.50;;;;;;;;;;4874805;29;20063;-76
2021/12/03 22:48:23;;;;;;;3.88;3.13;;;;;;;;;;4880819;29;20033;-76
2021/12/03 22:50:51;;;;;;;5.95;3.33;;;;;;;;;;4880704;29;20096;-76
2021/12/03 22:53:17;;;;;;;5.07;4.07;;;;;;;;;;4880737;29;20025;-76
2021/12/03 22:55:43;;;;;;;4.57;2.83;;;;;;;;;;4880515;29;20100;-77
2021/12/03 22:58:10;;;;;;;3.05;2.30;;;;;;;;;;4880275;29;20154;-76
2021/12/03 23:00:50;;;;;;;4.75;2.30;;;;;;;;;;4880324;29;20029;-76
2021/12/03 23:03:16;;;;;;;6.22;2.50;;;;;;;;;;4880196;29;20032;-76
2021/12/03 23:05:42;;;;;;;3.25;2.22;;;;;;;;;;4880277;29;20044;-76
2021/12/03 23:08:08;;;;;;;4.38;2.20;;;;;;;;;;4880270;29;20077;-76
2021/12/03 23:10:34;;;;;;;3.47;2.70;;;;;;;;;;4880439;29;20417;-76
2021/12/03 23:13:01;;;;;;;5.18;3.00;;;;;;;;;;4863553;29;20041;-76
2021/12/03 23:15:27;;;;;;;3.85;2.60;;;;;;;;;;4880338;29;20425;-77
2021/12/03 23:17:53;;;;;;;4.68;2.90;;;;;;;;;;4880285;29;20089;-76
2021/12/03 23:20:19;;;;;;;5.47;3.67;;;;;;;;;;4880037;29;20500;-76
2021/12/03 23:22:46;;;;;;;7.05;5.18;;;;;;;;;;4879921;29;20025;-76
2021/12/03 23:25:13;;;;;;;6.30;3.35;;;;;;;;;;4879935;29;20025;-76
2021/12/03 23:27:39;;;;;;;5.30;3.30;;;;;;;;;;4879994;29;20040;-77
2021/12/03 23:30:05;;;;;;;5.15;3.40;;;;;;;;;;4880342;29;20037;-77
2021/12/03 23:32:30;;;;;;;5.07;3.08;;;;;;;;;;4863276;29;20472;-76
2021/12/03 23:34:56;;;;;;;7.50;3.33;;;;;;;;;;4879778;29;20036;-77
2021/12/03 23:37:22;;;;;;;5.50;3.38;;;;;;;;;;4880037;29;20068;-77
2021/12/03 23:39:47;;;;;;;5.95;3.58;;;;;;;;;;4879869;29;20033;-77
2021/12/03 23:42:13;;;;;;;4.85;3.47;;;;;;;;;;4879996;29;20420;-77
2021/12/03 23:44:38;;;;;;;5.78;3.53;;;;;;;;;;4879524;29;20033;-76
2021/12/03 23:47:04;;;;;;;6.55;4.10;;;;;;;;;;4880053;29;20076;-77
2021/12/03 23:49:29;;;;;;;5.25;4.03;;;;;;;;;;4879792;29;20124;-77
2021/12/03 23:51:56;;;;;;;6.88;3.58;;;;;;;;;;4863038;29;20040;-77
2021/12/03 23:54:23;;;;;;;5.82;3.35;;;;;;;;;;4879504;29;20065;-77
2021/12/03 23:56:51;;;;;;;6.53;4.13;;;;;;;;;;4879596;29;20515;-78
2021/12/03 23:59:21;;;;;;;4.43;3.42;;;;;;;;;;4863007;29;20056;-76
